sensor_id;sensor_type;location;lat;lon;timestamp;pressure;altitude;pressure_sealevel;temperature;humidity
49723;BME280;43484;43.608;1.458;2023-04-01T00:01:11;100066.69;;;11.78;100.00
49723;BME280;43484;43.608;1.458;2023-04-01T00:03:40;100069.22;;;11.76;100.00
49723;BME280;43484;43.608;1.458;2023-04-01T00:06:09;100067.63;;;11.80;100.00
49723;BME280;43484;43.608;1.458;2023-04-01T00:08:36;100073.63;;;11.80;100.00
49723;BME280;43484;43.608;1.458;2023-04-01T00:11:03;100077.03;;;11.81;100.00
49723;BME280;43484;43.608;1.458;2023-04-01T00:13:29;100074.34;;;11.76;100.00
49723;BME280;43484;43.608;1.458;2023-04-01T00:15:56;100078.53;;;11.73;100.00
49723;BME280;43484;43.608;1.458;2023-04-01T00:18:25;100070.66;;;11.67;100.00
49723;BME280;43484;43.608;1.458;2023-04-01T00:20:52;100063.81;;;11.67;100.00
49723;BME280;43484;43.608;1.458;2023-04-01T00:23:19;100068.19;;;11.70;100.00
49723;BME280;43484;43.608;1.458;2023-04-01T00:25:47;100058.88;;;11.73;100.00
49723;BME280;43484;43.608;1.458;2023-04-01T00:28:17;100062.34;;;11.75;100.00
49723;BME280;43484;43.608;1.458;2023-04-01T00:30:44;100061.06;;;11.61;100.00
49723;BME280;43484;43.608;1.458;2023-04-01T00:33:10;100051.88;;;11.68;100.00
49723;BME280;43484;43.608;1.458;2023-04-01T00:35:38;100033.94;;;11.69;100.00
49723;BME280;43484;43.608;1.458;2023-04-01T00:38:04;100041.38;;;11.60;100.00
49723;BME280;43484;43.608;1.458;2023-04-01T00:40:35;100041.53;;;11.65;100.00
49723;BME280;43484;43.608;1.458;2023-04-01T00:43:03;100036.22;;;11.60;100.00
49723;BME280;43484;43.608;1.458;2023-04-01T00:45:41;100035.19;;;11.54;100.00
49723;BME280;43484;43.608;1.458;2023-04-01T00:48:17;100037.84;;;11.57;100.00
49723;BME280;43484;43.608;1.458;2023-04-01T00:50:48;100039.53;;;11.56;100.00
49723;BME280;43484;43.608;1.458;2023-04-01T00:53:19;100043.25;;;11.66;100.00
49723;BME280;43484;43.608;1.458;2023-04-01T00:55:51;100039.31;;;11.49;100.00
49723;BME280;43484;43.608;1.458;2023-04-01T00:58:21;100040.13;;;11.48;100.00
49723;BME280;43484;43.608;1.458;2023-04-01T01:00:50;100034.19;;;11.49;100.00
49723;BME280;43484;43.608;1.458;2023-04-01T01:03:17;100032.63;;;11.54;100.00
49723;BME280;43484;43.608;1.458;2023-04-01T01:11:05;100039.03;;;11.39;100.00
49723;BME280;43484;43.608;1.458;2023-04-01T01:14:20;100028.22;;;11.50;100.00
49723;BME280;43484;43.608;1.458;2023-04-01T01:31:17;100023.53;;;11.35;100.00
49723;BME280;43484;43.608;1.458;2023-04-01T01:36:15;100021.97;;;11.40;100.00
49723;BME280;43484;43.608;1.458;2023-04-01T01:38:44;100027.50;;;11.25;100.00
49723;BME280;43484;43.608;1.458;2023-04-01T01:41:12;100035.38;;;11.31;100.00
49723;BME280;43484;43.608;1.458;2023-04-01T01:43:43;100021.53;;;11.25;100.00
49723;BME280;43484;43.608;1.458;2023-04-01T01:46:17;100017.25;;;11.25;100.00
49723;BME280;43484;43.608;1.458;2023-04-01T01:48:45;100026.81;;;11.31;100.00
49723;BME280;43484;43.608;1.458;2023-04-01T01:51:14;100030.25;;;11.31;100.00
49723;BME280;43484;43.608;1.458;2023-04-01T01:53:41;100027.50;;;11.25;100.00
49723;BME280;43484;43.608;1.458;2023-04-01T01:56:09;100022.91;;;11.15;100.00
49723;BME280;43484;43.608;1.458;2023-04-01T01:58:43;100011.63;;;11.09;100.00
49723;BME280;43484;43.608;1.458;2023-04-01T02:01:24;100014.22;;;11.10;100.00
49723;BME280;43484;43.608;1.458;2023-04-01T02:03:53;100015.22;;;11.15;100.00
49723;BME280;43484;43.608;1.458;2023-04-01T02:06:27;100019.50;;;11.15;100.00
49723;BME280;43484;43.608;1.458;2023-04-01T02:09:02;100013.41;;;11.11;100.00
49723;BME280;43484;43.608;1.458;2023-04-01T02:11:34;99997.94;;;11.08;100.00
49723;BME280;43484;43.608;1.458;2023-04-01T02:14:18;99995.47;;;11.11;100.00
49723;BME280;43484;43.608;1.458;2023-04-01T02:17:09;99993.00;;;11.14;100.00
49723;BME280;43484;43.608;1.458;2023-04-01T02:19:50;99999.81;;;11.14;100.00
49723;BME280;43484;43.608;1.458;2023-04-01T02:22:22;99999.75;;;11.12;100.00
49723;BME280;43484;43.608;1.458;2023-04-01T02:24:52;99991.34;;;11.16;100.00
49723;BME280;43484;43.608;1.458;2023-04-01T02:27:20;99995.59;;;11.16;100.00
49723;BME280;43484;43.608;1.458;2023-04-01T02:29:47;99992.91;;;11.11;100.00
49723;BME280;43484;43.608;1.458;2023-04-01T02:32:14;99991.03;;;11.06;100.00
49723;BME280;43484;43.608;1.458;2023-04-01T02:34:41;99997.03;;;11.06;100.00
49723;BME280;43484;43.608;1.458;2023-04-01T02:37:08;99993.75;;;11.12;100.00
49723;BME280;43484;43.608;1.458;2023-04-01T02:39:37;99981.59;;;11.05;100.00
49723;BME280;43484;43.608;1.458;2023-04-01T02:42:03;99980.78;;;11.06;100.00
49723;BME280;43484;43.608;1.458;2023-04-01T02:44:31;99974.63;;;11.01;100.00
49723;BME280;43484;43.608;1.458;2023-04-01T02:46:57;99979.72;;;10.99;100.00
49723;BME280;43484;43.608;1.458;2023-04-01T02:49:24;99965.84;;;10.93;100.00
49723;BME280;43484;43.608;1.458;2023-04-01T02:51:51;99968.41;;;10.93;100.00
49723;BME280;43484;43.608;1.458;2023-04-01T02:54:19;99964.09;;;10.92;100.00
49723;BME280;43484;43.608;1.458;2023-04-01T02:56:45;99973.41;;;10.88;100.00
49723;BME280;43484;43.608;1.458;2023-04-01T02:59:12;99967.22;;;10.82;100.00
49723;BME280;43484;43.608;1.458;2023-04-01T03:01:39;99961.38;;;10.86;100.00
49723;BME280;43484;43.608;1.458;2023-04-01T03:04:06;99965.41;;;10.78;100.00
49723;BME280;43484;43.608;1.458;2023-04-01T03:06:33;99970.47;;;10.76;100.00
49723;BME280;43484;43.608;1.458;2023-04-01T03:08:59;99956.69;;;10.73;100.00
49723;BME280;43484;43.608;1.458;2023-04-01T03:11:26;99961.16;;;10.78;100.00
49723;BME280;43484;43.608;1.458;2023-04-01T03:13:53;99961.78;;;10.71;100.00
49723;BME280;43484;43.608;1.458;2023-04-01T03:16:19;99968.28;;;10.62;100.00
49723;BME280;43484;43.608;1.458;2023-04-01T03:18:46;99969.25;;;10.65;100.00
49723;BME280;43484;43.608;1.458;2023-04-01T03:21:18;99965.00;;;10.66;100.00
49723;BME280;43484;43.608;1.458;2023-04-01T03:23:45;99947.78;;;10.62;100.00
49723;BME280;43484;43.608;1.458;2023-04-01T03:26:12;99942.59;;;10.59;100.00
49723;BME280;43484;43.608;1.458;2023-04-01T03:28:40;99945.97;;;10.58;100.00
49723;BME280;43484;43.608;1.458;2023-04-01T03:31:06;99945.16;;;10.59;100.00
49723;BME280;43484;43.608;1.458;2023-04-01T03:33:33;99940.72;;;10.53;100.00
49723;BME280;43484;43.608;1.458;2023-04-01T03:36:00;99937.28;;;10.53;100.00
49723;BME280;43484;43.608;1.458;2023-04-01T03:38:26;99930.47;;;10.53;100.00
49723;BME280;43484;43.608;1.458;2023-04-01T03:40:53;99932.25;;;10.56;100.00
49723;BME280;43484;43.608;1.458;2023-04-01T03:43:20;99934.81;;;10.56;100.00
49723;BME280;43484;43.608;1.458;2023-04-01T03:45:48;99930.63;;;10.58;100.00
49723;BME280;43484;43.608;1.458;2023-04-01T03:48:15;99925.44;;;10.56;100.00
49723;BME280;43484;43.608;1.458;2023-04-01T03:50:42;99921.28;;;10.60;100.00
49723;BME280;43484;43.608;1.458;2023-04-01T03:53:09;99924.69;;;10.60;100.00
49723;BME280;43484;43.608;1.458;2023-04-01T03:55:37;99923.91;;;10.61;100.00
49723;BME280;43484;43.608;1.458;2023-04-01T03:58:04;99917.34;;;10.71;100.00
49723;BME280;43484;43.608;1.458;2023-04-01T04:00:32;99915.66;;;10.71;100.00
49723;BME280;43484;43.608;1.458;2023-04-01T04:02:59;99924.91;;;10.66;100.00
49723;BME280;43484;43.608;1.458;2023-04-01T04:05:26;99919.88;;;10.69;100.00
49723;BME280;43484;43.608;1.458;2023-04-01T04:07:54;99925.16;;;10.75;100.00
49723;BME280;43484;43.608;1.458;2023-04-01T04:10:20;99928.69;;;10.79;100.00
49723;BME280;43484;43.608;1.458;2023-04-01T04:12:49;99929.31;;;10.72;100.00
49723;BME280;43484;43.608;1.458;2023-04-01T04:15:16;99919.94;;;10.72;100.00
49723;BME280;43484;43.608;1.458;2023-04-01T04:17:44;99933.72;;;10.76;100.00
49723;BME280;43484;43.608;1.458;2023-04-01T04:20:11;99927.59;;;10.71;100.00
49723;BME280;43484;43.608;1.458;2023-04-01T04:22:39;99920.25;;;10.81;100.00
49723;BME280;43484;43.608;1.458;2023-04-01T04:25:06;99928.47;;;10.71;100.00
49723;BME280;43484;43.608;1.458;2023-04-01T04:27:33;99933.56;;;10.70;100.00
49723;BME280;43484;43.608;1.458;2023-04-01T04:30:00;99935.31;;;10.72;100.00
49723;BME280;43484;43.608;1.458;2023-04-01T04:32:26;99945.69;;;10.77;100.00
49723;BME280;43484;43.608;1.458;2023-04-01T04:34:55;99945.53;;;10.71;100.00
49723;BME280;43484;43.608;1.458;2023-04-01T04:37:21;99950.75;;;10.74;100.00
49723;BME280;43484;43.608;1.458;2023-04-01T04:39:48;99953.16;;;10.69;100.00
49723;BME280;43484;43.608;1.458;2023-04-01T04:42:15;99948.75;;;10.65;100.00
49723;BME280;43484;43.608;1.458;2023-04-01T04:44:41;99948.13;;;10.72;100.00
49723;BME280;43484;43.608;1.458;2023-04-01T04:47:08;99970.31;;;10.72;100.00
49723;BME280;43484;43.608;1.458;2023-04-01T04:49:34;99956.06;;;10.80;100.00
49723;BME280;43484;43.608;1.458;2023-04-01T04:52:01;99955.22;;;10.81;100.00
49723;BME280;43484;43.608;1.458;2023-04-01T04:54:28;99963.75;;;10.80;100.00
49723;BME280;43484;43.608;1.458;2023-04-01T04:56:55;99961.91;;;10.76;100.00
49723;BME280;43484;43.608;1.458;2023-04-01T04:59:22;99955.03;;;10.73;100.00
49723;BME280;43484;43.608;1.458;2023-04-01T05:01:49;99954.25;;;10.77;100.00
49723;BME280;43484;43.608;1.458;2023-04-01T05:04:15;99963.63;;;10.77;100.00
49723;BME280;43484;43.608;1.458;2023-04-01T05:06:42;99962.59;;;10.70;100.00
49723;BME280;43484;43.608;1.458;2023-04-01T05:09:11;99955.81;;;10.72;100.00
49723;BME280;43484;43.608;1.458;2023-04-01T05:11:38;99953.09;;;10.66;100.00
49723;BME280;43484;43.608;1.458;2023-04-01T05:14:04;99950.34;;;10.62;100.00
49723;BME280;43484;43.608;1.458;2023-04-01T05:16:31;99955.03;;;10.73;100.00
49723;BME280;43484;43.608;1.458;2023-04-01T05:18:58;99947.22;;;10.70;100.00
49723;BME280;43484;43.608;1.458;2023-04-01T05:21:24;99942.09;;;10.70;100.00
49723;BME280;43484;43.608;1.458;2023-04-01T05:23:51;99942.34;;;10.78;100.00
49723;BME280;43484;43.608;1.458;2023-04-01T05:26:18;99942.00;;;10.67;100.00
49723;BME280;43484;43.608;1.458;2023-04-01T05:28:44;99940.44;;;10.72;100.00
49723;BME280;43484;43.608;1.458;2023-04-01T05:31:11;99945.63;;;10.74;100.00
49723;BME280;43484;43.608;1.458;2023-04-01T05:33:38;99938.72;;;10.71;100.00
49723;BME280;43484;43.608;1.458;2023-04-01T05:36:14;99940.50;;;10.74;100.00
49723;BME280;43484;43.608;1.458;2023-04-01T05:38:41;99932.00;;;10.75;100.00
49723;BME280;43484;43.608;1.458;2023-04-01T05:41:08;99940.53;;;10.75;100.00
49723;BME280;43484;43.608;1.458;2023-04-01T05:43:36;99939.66;;;10.73;100.00
49723;BME280;43484;43.608;1.458;2023-04-01T05:46:03;99946.16;;;10.64;100.00
49723;BME280;43484;43.608;1.458;2023-04-01T05:48:29;99943.94;;;10.74;100.00
49723;BME280;43484;43.608;1.458;2023-04-01T05:50:56;99944.06;;;10.79;100.00
49723;BME280;43484;43.608;1.458;2023-04-01T05:53:23;99949.97;;;10.76;100.00
49723;BME280;43484;43.608;1.458;2023-04-01T05:55:49;99950.66;;;10.71;100.00
49723;BME280;43484;43.608;1.458;2023-04-01T05:58:16;99947.03;;;10.64;100.00
49723;BME280;43484;43.608;1.458;2023-04-01T06:00:43;99945.66;;;10.75;100.00
49723;BME280;43484;43.608;1.458;2023-04-01T06:03:11;99943.34;;;10.83;100.00
49723;BME280;43484;43.608;1.458;2023-04-01T06:05:40;99948.09;;;10.71;100.00
49723;BME280;43484;43.608;1.458;2023-04-01T06:08:15;99948.94;;;10.70;100.00
49723;BME280;43484;43.608;1.458;2023-04-01T06:16:31;99961.16;;;10.78;100.00
49723;BME280;43484;43.608;1.458;2023-04-01T06:19:14;99963.88;;;10.84;100.00
49723;BME280;43484;43.608;1.458;2023-04-01T06:36:20;99986.22;;;10.88;100.00
49723;BME280;43484;43.608;1.458;2023-04-01T06:46:24;99982.16;;;10.95;100.00
49723;BME280;43484;43.608;1.458;2023-04-01T06:49:05;99992.38;;;10.93;100.00
49723;BME280;43484;43.608;1.458;2023-04-01T06:54:21;100002.84;;;11.01;100.00
49723;BME280;43484;43.608;1.458;2023-04-01T06:56:58;100001.38;;;11.09;100.00
49723;BME280;43484;43.608;1.458;2023-04-01T06:59:32;100009.00;;;11.07;100.00
49723;BME280;43484;43.608;1.458;2023-04-01T07:02:05;100010.03;;;11.12;100.00
49723;BME280;43484;43.608;1.458;2023-04-01T07:04:44;100004.94;;;11.14;100.00
49723;BME280;43484;43.608;1.458;2023-04-01T07:07:25;100014.44;;;11.16;100.00
49723;BME280;43484;43.608;1.458;2023-04-01T07:09:56;100005.84;;;11.16;100.00
49723;BME280;43484;43.608;1.458;2023-04-01T07:12:43;100019.75;;;11.24;100.00
49723;BME280;43484;43.608;1.458;2023-04-01T07:15:17;100028.66;;;11.35;100.00
49723;BME280;43484;43.608;1.458;2023-04-01T07:17:48;100020.25;;;11.40;100.00
49723;BME280;43484;43.608;1.458;2023-04-01T07:20:30;100022.09;;;11.45;100.00
49723;BME280;43484;43.608;1.458;2023-04-01T07:23:00;100023.50;;;11.33;100.00
49723;BME280;43484;43.608;1.458;2023-04-01T07:25:41;100033.91;;;11.39;100.00
49723;BME280;43484;43.608;1.458;2023-04-01T07:28:15;100023.63;;;11.38;100.00
49723;BME280;43484;43.608;1.458;2023-04-01T07:36:36;100020.28;;;11.42;100.00
49723;BME280;43484;43.608;1.458;2023-04-01T07:41:58;100020.59;;;11.53;100.00
49723;BME280;43484;43.608;1.458;2023-04-01T07:50:20;100023.59;;;11.66;100.00
49723;BME280;43484;43.608;1.458;2023-04-01T07:53:16;100011.41;;;11.61;100.00
49723;BME280;43484;43.608;1.458;2023-04-01T07:55:47;100017.53;;;11.64;100.00
49723;BME280;43484;43.608;1.458;2023-04-01T08:01:00;100006.50;;;11.67;100.00
49723;BME280;43484;43.608;1.458;2023-04-01T08:12:45;99991.47;;;11.79;100.00
49723;BME280;43484;43.608;1.458;2023-04-01T08:21:02;99983.44;;;12.32;100.00
49723;BME280;43484;43.608;1.458;2023-04-01T08:23:36;99980.94;;;12.35;100.00
49723;BME280;43484;43.608;1.458;2023-04-01T08:26:11;99986.16;;;12.39;100.00
49723;BME280;43484;43.608;1.458;2023-04-01T08:28:41;99992.72;;;12.27;100.00
49723;BME280;43484;43.608;1.458;2023-04-01T08:31:19;99976.03;;;12.44;100.00
49723;BME280;43484;43.608;1.458;2023-04-01T08:33:53;99994.13;;;12.50;100.00
49723;BME280;43484;43.608;1.458;2023-04-01T08:36:31;99978.53;;;12.42;100.00
49723;BME280;43484;43.608;1.458;2023-04-01T08:39:38;99972.91;;;12.57;100.00
49723;BME280;43484;43.608;1.458;2023-04-01T08:48:36;99983.53;;;13.08;100.00
49723;BME280;43484;43.608;1.458;2023-04-01T09:03:02;99982.31;;;12.94;100.00
49723;BME280;43484;43.608;1.458;2023-04-01T09:05:42;99962.59;;;12.93;100.00
49723;BME280;43484;43.608;1.458;2023-04-01T09:11:25;99968.84;;;13.02;100.00
49723;BME280;43484;43.608;1.458;2023-04-01T09:22:05;99971.13;;;13.29;100.00
49723;BME280;43484;43.608;1.458;2023-04-01T09:24:52;99952.47;;;13.40;100.00
49723;BME280;43484;43.608;1.458;2023-04-01T09:27:27;99974.66;;;13.35;100.00
49723;BME280;43484;43.608;1.458;2023-04-01T09:38:57;99969.09;;;13.14;100.00
49723;BME280;43484;43.608;1.458;2023-04-01T09:41:31;99952.06;;;13.19;100.00
49723;BME280;43484;43.608;1.458;2023-04-01T09:52:20;99938.53;;;13.29;100.00
49723;BME280;43484;43.608;1.458;2023-04-01T10:01:00;99902.59;;;13.34;100.00
49723;BME280;43484;43.608;1.458;2023-04-01T10:20:18;99898.56;;;13.94;100.00
49723;BME280;43484;43.608;1.458;2023-04-01T10:53:49;99874.03;;;14.74;100.00
49723;BME280;43484;43.608;1.458;2023-04-01T10:56:38;99866.91;;;14.53;100.00
49723;BME280;43484;43.608;1.458;2023-04-01T11:05:21;99870.94;;;14.36;100.00
49723;BME280;43484;43.608;1.458;2023-04-01T11:08:28;99878.25;;;14.12;100.00
49723;BME280;43484;43.608;1.458;2023-04-01T11:19:25;99899.38;;;12.26;100.00
49723;BME280;43484;43.608;1.458;2023-04-01T11:22:07;99897.56;;;12.22;100.00
49723;BME280;43484;43.608;1.458;2023-04-01T11:30:58;99909.03;;;12.74;100.00
49723;BME280;43484;43.608;1.458;2023-04-01T11:33:51;99905.34;;;12.62;100.00
49723;BME280;43484;43.608;1.458;2023-04-01T11:36:32;99909.56;;;12.59;100.00
49723;BME280;43484;43.608;1.458;2023-04-01T11:53:28;99878.19;;;12.74;100.00
49723;BME280;43484;43.608;1.458;2023-04-01T11:56:09;99874.69;;;12.70;100.00
49723;BME280;43484;43.608;1.458;2023-04-01T12:06:32;99886.31;;;12.54;100.00
49723;BME280;43484;43.608;1.458;2023-04-01T12:12:13;99892.66;;;12.70;100.00
49723;BME280;43484;43.608;1.458;2023-04-01T12:18:03;99884.97;;;13.10;100.00
49723;BME280;43484;43.608;1.458;2023-04-01T12:23:28;99878.91;;;12.68;100.00
49723;BME280;43484;43.608;1.458;2023-04-01T12:29:07;99877.00;;;13.00;100.00
49723;BME280;43484;43.608;1.458;2023-04-01T12:31:52;99875.69;;;13.17;100.00
49723;BME280;43484;43.608;1.458;2023-04-01T12:34:32;99878.34;;;12.81;100.00
49723;BME280;43484;43.608;1.458;2023-04-01T12:37:21;99875.03;;;12.87;100.00
49723;BME280;43484;43.608;1.458;2023-04-01T12:43:40;99872.75;;;13.00;100.00
49723;BME280;43484;43.608;1.458;2023-04-01T12:46:31;99866.25;;;12.76;100.00
49723;BME280;43484;43.608;1.458;2023-04-01T12:49:27;99872.78;;;12.61;100.00
49723;BME280;43484;43.608;1.458;2023-04-01T12:52:12;99872.69;;;12.57;100.00
49723;BME280;43484;43.608;1.458;2023-04-01T12:54:56;99854.34;;;12.81;100.00
49723;BME280;43484;43.608;1.458;2023-04-01T13:11:54;99762.56;;;10.06;100.00
49723;BME280;43484;43.608;1.458;2023-04-01T13:22:51;99500.31;;;9.92;100.00
49723;BME280;43484;43.608;1.458;2023-04-01T13:32:02;99509.75;;;9.95;100.00
49723;BME280;43484;43.608;1.458;2023-04-01T13:34:44;99505.53;;;9.97;100.00
49723;BME280;43484;43.608;1.458;2023-04-01T13:45:33;99470.94;;;10.44;100.00
49723;BME280;43484;43.608;1.458;2023-04-01T13:59:22;99552.06;;;10.45;100.00
49723;BME280;43484;43.608;1.458;2023-04-01T14:05:35;99446.81;;;10.70;100.00
49723;BME280;43484;43.608;1.458;2023-04-01T14:14:14;99472.59;;;10.77;100.00
49723;BME280;43484;43.608;1.458;2023-04-01T14:22:29;99543.78;;;10.55;100.00
49723;BME280;43484;43.608;1.458;2023-04-01T14:25:22;99499.84;;;10.75;100.00
49723;BME280;43484;43.608;1.458;2023-04-01T14:30:41;99531.97;;;10.60;100.00
49723;BME280;43484;43.608;1.458;2023-04-01T14:36:35;99555.84;;;10.60;100.00
49723;BME280;43484;43.608;1.458;2023-04-01T14:42:14;99592.31;;;10.50;100.00
49723;BME280;43484;43.608;1.458;2023-04-01T14:50:47;99563.13;;;10.11;100.00
49723;BME280;43484;43.608;1.458;2023-04-01T14:53:26;99518.50;;;10.03;100.00
49723;BME280;43484;43.608;1.458;2023-04-01T14:55:54;99464.94;;;9.78;100.00
49723;BME280;43484;43.608;1.458;2023-04-01T14:58:23;99507.00;;;8.99;100.00
49723;BME280;43484;43.608;1.458;2023-04-01T15:15:10;99384.59;;;7.95;100.00
49723;BME280;43484;43.608;1.458;2023-04-01T15:18:09;99375.88;;;7.89;100.00
49723;BME280;43484;43.608;1.458;2023-04-01T15:26:22;99333.34;;;7.89;100.00
49723;BME280;43484;43.608;1.458;2023-04-01T15:31:54;99313.72;;;8.13;100.00
49723;BME280;43484;43.608;1.458;2023-04-01T15:37:13;99325.44;;;8.07;100.00
49723;BME280;43484;43.608;1.458;2023-04-01T15:43:06;99278.97;;;8.17;100.00
49723;BME280;43484;43.608;1.458;2023-04-01T15:57:36;99280.75;;;8.47;100.00
49723;BME280;43484;43.608;1.458;2023-04-01T16:00:11;99281.66;;;8.49;100.00
49723;BME280;43484;43.608;1.458;2023-04-01T16:03:02;99309.13;;;8.58;100.00
49723;BME280;43484;43.608;1.458;2023-04-01T16:05:48;99320.47;;;8.67;100.00
49723;BME280;43484;43.608;1.458;2023-04-01T16:19:37;99434.44;;;9.22;100.00
49723;BME280;43484;43.608;1.458;2023-04-01T16:24:48;99492.09;;;9.73;100.00
49723;BME280;43484;43.608;1.458;2023-04-01T16:28:29;99583.53;;;9.50;100.00
49723;BME280;43484;43.608;1.458;2023-04-01T16:38:18;99704.41;;;9.46;100.00
49723;BME280;43484;43.608;1.458;2023-04-01T16:43:48;99656.72;;;9.47;100.00
49723;BME280;43484;43.608;1.458;2023-04-01T16:46:27;99643.78;;;9.42;100.00
49723;BME280;43484;43.608;1.458;2023-04-01T16:48:58;99653.09;;;9.40;100.00
49723;BME280;43484;43.608;1.458;2023-04-01T17:02:14;99624.31;;;9.46;100.00
49723;BME280;43484;43.608;1.458;2023-04-01T17:04:47;99614.13;;;9.47;100.00
49723;BME280;43484;43.608;1.458;2023-04-01T17:13:18;99650.38;;;9.34;100.00
49723;BME280;43484;43.608;1.458;2023-04-01T17:16:14;99677.03;;;9.42;100.00
49723;BME280;43484;43.608;1.458;2023-04-01T17:27:21;99730.81;;;9.45;100.00
49723;BME280;43484;43.608;1.458;2023-04-01T17:30:16;99722.66;;;9.57;100.00
49723;BME280;43484;43.608;1.458;2023-04-01T17:33:05;99736.22;;;9.54;100.00
49723;BME280;43484;43.608;1.458;2023-04-01T17:35:54;99743.41;;;9.39;100.00
49723;BME280;43484;43.608;1.458;2023-04-01T17:41:31;99721.06;;;9.34;100.00
49723;BME280;43484;43.608;1.458;2023-04-01T17:52:40;99622.50;;;9.43;100.00
49723;BME280;43484;43.608;1.458;2023-04-01T17:56:01;99663.06;;;9.33;100.00
49723;BME280;43484;43.608;1.458;2023-04-01T18:01:02;99708.59;;;9.18;100.00
49723;BME280;43484;43.608;1.458;2023-04-01T18:03:54;99743.16;;;9.07;100.00
49723;BME280;43484;43.608;1.458;2023-04-01T18:09:45;99709.69;;;8.99;100.00
49723;BME280;43484;43.608;1.458;2023-04-01T18:20:24;99540.38;;;8.51;100.00
49723;BME280;43484;43.608;1.458;2023-04-01T18:25:33;99492.31;;;8.38;100.00
49723;BME280;43484;43.608;1.458;2023-04-01T18:28:47;99468.06;;;8.26;100.00
49723;BME280;43484;43.608;1.458;2023-04-01T18:31:19;99474.72;;;8.22;100.00
49723;BME280;43484;43.608;1.458;2023-04-01T18:39:03;99473.19;;;8.26;100.00
49723;BME280;43484;43.608;1.458;2023-04-01T18:41:59;99482.34;;;8.21;100.00
49723;BME280;43484;43.608;1.458;2023-04-01T18:49:52;99470.66;;;8.27;100.00
49723;BME280;43484;43.608;1.458;2023-04-01T18:52:26;99463.13;;;8.30;100.00
49723;BME280;43484;43.608;1.458;2023-04-01T18:57:48;99468.38;;;8.35;100.00
49723;BME280;43484;43.608;1.458;2023-04-01T19:00:28;99494.38;;;8.23;100.00
49723;BME280;43484;43.608;1.458;2023-04-01T19:03:17;99498.13;;;8.34;100.00
49723;BME280;43484;43.608;1.458;2023-04-01T19:05:50;99513.69;;;8.17;100.00
49723;BME280;43484;43.608;1.458;2023-04-01T19:08:26;99509.81;;;8.28;100.00
49723;BME280;43484;43.608;1.458;2023-04-01T19:11:30;99522.91;;;8.13;100.00
49723;BME280;43484;43.608;1.458;2023-04-01T19:19:56;99506.81;;;8.16;100.00
49723;BME280;43484;43.608;1.458;2023-04-01T19:22:42;99511.44;;;8.26;100.00
49723;BME280;43484;43.608;1.458;2023-04-01T19:39:15;99502.03;;;8.23;100.00
49723;BME280;43484;43.608;1.458;2023-04-01T19:47:39;99502.69;;;8.19;100.00
49723;BME280;43484;43.608;1.458;2023-04-01T19:50:30;99509.19;;;8.10;100.00
49723;BME280;43484;43.608;1.458;2023-04-01T19:56:19;99518.75;;;8.15;100.00
49723;BME280;43484;43.608;1.458;2023-04-01T20:01:28;99514.16;;;8.05;100.00
49723;BME280;43484;43.608;1.458;2023-04-01T20:04:39;99509.84;;;8.04;100.00
49723;BME280;43484;43.608;1.458;2023-04-01T20:07:15;99505.63;;;8.05;100.00
49723;BME280;43484;43.608;1.458;2023-04-01T20:09:51;99508.50;;;8.14;100.00
49723;BME280;43484;43.608;1.458;2023-04-01T20:15:33;99507.59;;;8.13;100.00
49723;BME280;43484;43.608;1.458;2023-04-01T20:18:05;99521.94;;;8.10;100.00
49723;BME280;43484;43.608;1.458;2023-04-01T20:20:39;99518.50;;;8.09;100.00
49723;BME280;43484;43.608;1.458;2023-04-01T20:23:45;99513.06;;;7.99;100.00
49723;BME280;43484;43.608;1.458;2023-04-01T20:26:21;99518.81;;;7.93;100.00
49723;BME280;43484;43.608;1.458;2023-04-01T20:31:42;99514.38;;;7.88;100.00
49723;BME280;43484;43.608;1.458;2023-04-01T20:34:21;99517.56;;;7.82;100.00
49723;BME280;43484;43.608;1.458;2023-04-01T20:53:16;99514.91;;;7.79;100.00
49723;BME280;43484;43.608;1.458;2023-04-01T21:01:02;99527.75;;;7.82;100.00
49723;BME280;43484;43.608;1.458;2023-04-01T21:19:49;99544.75;;;7.82;100.00
49723;BME280;43484;43.608;1.458;2023-04-01T21:25:47;99550.66;;;7.81;100.00
49723;BME280;43484;43.608;1.458;2023-04-01T21:28:40;99551.38;;;7.77;100.00
49723;BME280;43484;43.608;1.458;2023-04-01T21:31:30;99548.78;;;7.75;100.00
49723;BME280;43484;43.608;1.458;2023-04-01T21:56:20;99538.72;;;7.56;100.00
49723;BME280;43484;43.608;1.458;2023-04-01T22:09:38;99530.19;;;7.55;100.00
49723;BME280;43484;43.608;1.458;2023-04-01T22:12:14;99538.63;;;7.53;100.00
49723;BME280;43484;43.608;1.458;2023-04-01T22:17:48;99552.28;;;7.55;100.00
49723;BME280;43484;43.608;1.458;2023-04-01T22:28:37;99611.94;;;7.60;100.00
49723;BME280;43484;43.608;1.458;2023-04-01T22:31:08;99636.63;;;7.61;100.00
49723;BME280;43484;43.608;1.458;2023-04-01T22:36:17;99647.69;;;7.61;100.00
49723;BME280;43484;43.608;1.458;2023-04-01T22:44:00;99662.00;;;7.58;100.00
49723;BME280;43484;43.608;1.458;2023-04-01T22:49:11;99646.50;;;7.53;100.00
49723;BME280;43484;43.608;1.458;2023-04-01T22:52:05;99645.47;;;7.48;100.00
49723;BME280;43484;43.608;1.458;2023-04-01T22:55:13;99637.03;;;7.49;100.00
49723;BME280;43484;43.608;1.458;2023-04-01T22:57:47;99625.03;;;7.47;100.00
49723;BME280;43484;43.608;1.458;2023-04-01T23:00:24;99623.25;;;7.44;100.00
49723;BME280;43484;43.608;1.458;2023-04-01T23:03:46;99604.47;;;7.42;100.00
49723;BME280;43484;43.608;1.458;2023-04-01T23:06:26;99609.56;;;7.42;100.00
49723;BME280;43484;43.608;1.458;2023-04-01T23:19:54;99602.34;;;7.31;100.00
49723;BME280;43484;43.608;1.458;2023-04-01T23:22:49;99600.66;;;7.31;100.00
49723;BME280;43484;43.608;1.458;2023-04-01T23:31:30;99593.69;;;7.27;100.00
49723;BME280;43484;43.608;1.458;2023-04-01T23:34:21;99591.31;;;7.32;100.00